Terminal Aerodrome Forecast
Issued by NWS

Home | Current Version | Previous Version | Text Only | Print | Product List | Glossary On
Versions: 1 2 3 4 5 6 7 8 9 10 11 12 13 14 15 16
310
FTUS43 KICT 262330
TAFCNU
TAF
KCNU 262330Z 2700/2724 03007KT P6SM VCTS SCT035 OVC050CB
      TEMPO 2700/2703 VRB25G35KT 3SM TSRA BKN035CB
     FM270300 09007KT P6SM SCT050 BKN080=

USA.gov is the U.S. government's official web portal to all federal, state and local government web resources and services.